createdAt,value
2023-04-17T05:45:57.576Z,8.24
2023-04-17T05:48:26.932Z,8.35
2023-04-17T05:50:55.324Z,8.36
2023-04-17T05:53:24.184Z,8.33
2023-04-17T05:55:56.909Z,8.30
2023-04-17T05:58:45.905Z,8.30
2023-04-17T06:01:18.211Z,8.29
2023-04-17T06:03:46.762Z,8.30
2023-04-17T06:06:19.678Z,8.33
2023-04-17T06:08:49.945Z,8.40
2023-04-17T06:11:38.275Z,8.45
2023-04-17T06:14:29.591Z,8.50
2023-04-17T06:16:58.708Z,8.52
2023-04-17T06:19:27.072Z,8.50
2023-04-17T06:21:55.329Z,8.51
2023-04-17T06:24:24.134Z,8.54
2023-04-17T06:26:52.517Z,8.57
2023-04-17T06:29:21.399Z,8.56
2023-04-17T06:35:14.434Z,8.53
2023-04-17T06:37:48.071Z,8.54
2023-04-17T06:40:15.260Z,8.60
2023-04-17T06:42:42.449Z,8.61
2023-04-17T06:45:33.634Z,8.62
2023-04-17T06:48:00.718Z,8.65
2023-04-17T06:50:28.749Z,8.68
2023-04-17T06:52:56.236Z,8.67
2023-04-17T06:55:29.689Z,8.67
2023-04-17T06:58:00.262Z,8.69
2023-04-17T07:00:27.211Z,8.70
2023-04-17T07:02:54.898Z,8.70
2023-04-17T07:05:22.015Z,8.70
2023-04-17T07:07:53.885Z,8.73
2023-04-17T07:10:21.124Z,8.74
2023-04-17T07:12:48.631Z,8.76
2023-04-17T07:15:17.399Z,8.75
2023-04-17T07:17:45.041Z,8.77
2023-04-17T07:20:12.118Z,8.79
2023-04-17T07:22:39.517Z,8.79
2023-04-17T07:25:07.370Z,8.78
2023-04-17T07:27:35.429Z,8.78
2023-04-17T07:30:08.604Z,8.81
2023-04-17T07:32:39.357Z,8.83
2023-04-17T07:35:07.121Z,8.86
2023-04-17T07:37:34.194Z,8.92
2023-04-17T07:40:01.701Z,8.97
2023-04-17T07:42:29.069Z,9.04
2023-04-17T07:44:56.832Z,9.12
2023-04-17T07:47:24.549Z,9.23
2023-04-17T07:49:51.734Z,9.40
2023-04-17T07:52:18.731Z,9.62
2023-04-17T07:54:47.058Z,9.74
2023-04-17T07:57:14.943Z,9.82
2023-04-17T07:59:42.011Z,9.86
2023-04-17T08:02:09.475Z,9.87
2023-04-17T08:04:39.786Z,9.88
2023-04-17T08:07:12.239Z,9.92
2023-04-17T08:09:41.457Z,10.00
2023-04-17T08:26:13.194Z,10.38
2023-04-17T08:28:43.109Z,10.35
2023-04-17T08:31:11.723Z,10.31
2023-04-17T08:33:40.405Z,10.36
2023-04-17T08:36:10.864Z,10.46
2023-04-17T08:38:39.739Z,10.61
2023-04-17T08:41:14.441Z,10.79
2023-04-17T08:43:43.417Z,10.95
2023-04-17T08:46:12.937Z,11.05
2023-04-17T08:48:41.583Z,11.14
2023-04-17T08:51:10.823Z,11.28
2023-04-17T08:53:42.258Z,11.46
2023-04-17T08:56:13.540Z,11.62
2023-04-17T08:58:42.213Z,11.73
2023-04-17T09:01:18.460Z,11.74
2023-04-17T09:03:48.137Z,11.76
2023-04-17T09:06:16.670Z,11.73
2023-04-17T09:09:02.406Z,11.71
2023-04-17T09:11:31.096Z,11.76
2023-04-17T09:14:01.374Z,11.88
2023-04-17T09:16:30.399Z,11.99
2023-04-17T09:19:07.065Z,12.13
2023-04-17T09:21:35.606Z,12.28
2023-04-17T09:24:05.494Z,12.37
2023-04-17T09:26:34.290Z,12.50
2023-04-17T09:29:09.518Z,12.63
2023-04-17T09:31:39.665Z,12.74
2023-04-17T09:34:12.951Z,12.79
2023-04-17T09:36:42.995Z,12.70
2023-04-17T09:39:24.799Z,12.54
2023-04-17T09:42:07.333Z,12.39
2023-04-17T09:44:40.658Z,12.30
2023-04-17T09:47:08.876Z,12.33
2023-04-17T09:49:45.396Z,12.41
2023-04-17T09:52:13.880Z,12.46
2023-04-17T09:54:43.126Z,12.56
2023-04-17T09:57:11.875Z,12.68
2023-04-17T09:59:41.997Z,12.88
2023-04-17T10:02:17.595Z,13.11
2023-04-17T10:04:46.837Z,13.31
2023-04-17T10:07:16.647Z,13.45
2023-04-17T10:09:46.145Z,13.57
2023-04-17T10:12:16.291Z,13.69
2023-04-17T10:14:49.098Z,13.74
2023-04-17T10:17:34.921Z,13.75
2023-04-17T10:20:17.767Z,13.79
2023-04-17T10:22:54.600Z,13.84
2023-04-17T10:25:24.464Z,13.91
2023-04-17T10:28:02.360Z,13.93
2023-04-17T10:30:51.505Z,14.11
2023-04-17T10:33:25.063Z,14.34
2023-04-17T10:35:53.339Z,14.52
2023-04-17T10:38:32.981Z,14.74
2023-04-17T10:41:03.520Z,14.92
2023-04-17T10:43:31.939Z,14.93
2023-04-17T10:46:00.364Z,14.92
2023-04-17T10:48:56.593Z,14.91
2023-04-17T10:51:29.286Z,14.97
2023-04-17T10:54:01.577Z,15.00
2023-04-17T10:56:35.533Z,14.98
2023-04-17T10:59:07.183Z,14.96
2023-04-17T11:01:47.589Z,14.95
2023-04-17T11:04:20.100Z,15.04
2023-04-17T11:06:48.514Z,15.04
2023-04-17T11:09:17.288Z,15.09
2023-04-17T11:11:48.685Z,15.13
2023-04-17T11:18:59.824Z,15.35
2023-04-17T11:35:15.487Z,15.39
2023-04-17T17:21:42.873Z,10.82
2023-04-17T17:24:11.438Z,10.76
2023-04-17T17:26:42.567Z,10.72
2023-04-17T17:29:11.189Z,10.69
2023-04-17T17:31:39.989Z,10.65
2023-04-17T17:34:22.393Z,10.62
2023-04-17T17:36:54.362Z,10.59
2023-04-17T17:39:23.716Z,10.56
2023-04-17T17:41:52.416Z,10.53
2023-04-17T17:44:23.566Z,10.50
2023-04-17T17:46:51.822Z,10.47
2023-04-17T17:49:20.441Z,10.44
2023-04-17T17:51:51.559Z,10.40
2023-04-17T17:54:19.716Z,10.39
2023-04-17T17:56:47.846Z,10.37
2023-04-17T17:59:16.390Z,10.35
2023-04-17T18:01:44.798Z,10.32
2023-04-17T18:04:13.368Z,10.29
2023-04-17T18:06:42.629Z,10.27
2023-04-17T18:09:11.012Z,10.26
2023-04-17T18:11:39.392Z,10.24
2023-04-17T18:14:07.654Z,10.22
2023-04-17T18:16:37.790Z,10.20
2023-04-17T18:19:06.873Z,10.18
2023-04-17T18:21:35.457Z,10.16
2023-04-17T18:24:03.752Z,10.14
2023-04-17T18:26:32.036Z,10.13
2023-04-17T18:29:01.006Z,10.11
2023-04-17T18:31:29.553Z,10.10
2023-04-17T18:34:02.219Z,10.10
2023-04-17T18:36:31.070Z,10.10
2023-04-17T18:38:59.198Z,10.10
2023-04-17T18:41:27.711Z,10.09
2023-04-17T18:43:56.191Z,10.09
2023-04-17T18:46:26.470Z,10.08
2023-04-17T18:48:54.514Z,10.06
2023-04-17T18:51:22.861Z,10.04
2023-04-17T18:53:51.673Z,10.04
2023-04-17T18:56:19.854Z,10.02
2023-04-17T18:58:51.415Z,10.01
2023-04-17T19:01:19.679Z,10.00
2023-04-17T19:03:48.108Z,9.97
2023-04-17T19:06:16.625Z,9.95
2023-04-17T19:08:45.293Z,9.93
2023-04-17T19:11:13.434Z,9.92
2023-04-17T19:13:42.986Z,9.89
2023-04-17T19:16:11.685Z,9.87
2023-04-17T19:18:39.817Z,9.85
2023-04-17T19:21:08.206Z,9.83
2023-04-17T19:23:37.541Z,9.82
2023-04-17T19:26:05.787Z,9.81
2023-04-17T19:28:34.027Z,9.78
2023-04-17T19:31:03.203Z,9.77
2023-04-17T19:33:32.048Z,9.74
2023-04-17T19:36:03.233Z,9.72
2023-04-17T19:38:31.904Z,9.69
2023-04-17T19:41:20.215Z,9.66
2023-04-17T19:43:51.979Z,9.65
2023-04-17T19:46:21.248Z,9.62
2023-04-17T19:48:49.937Z,9.61
2023-04-17T19:51:18.753Z,9.60
2023-04-17T19:53:48.149Z,9.60
2023-04-17T19:56:16.636Z,9.58
2023-04-17T19:58:46.298Z,9.56
2023-04-17T20:01:15.204Z,9.55
2023-04-17T20:03:45.810Z,9.55
2023-04-17T20:06:14.344Z,9.54
2023-04-17T20:08:42.825Z,9.52
2023-04-17T20:11:12.454Z,9.52
2023-04-17T20:13:41.562Z,9.51
2023-04-17T20:16:09.987Z,9.53
2023-04-17T20:18:41.990Z,9.56
2023-04-17T20:21:10.258Z,9.58
2023-04-17T20:23:38.617Z,9.60
2023-04-17T20:26:06.795Z,9.60
2023-04-17T20:28:35.198Z,9.59
2023-04-17T20:31:03.815Z,9.56
2023-04-17T20:33:35.370Z,9.53
2023-04-17T20:36:03.990Z,9.50
2023-04-17T20:38:32.398Z,9.47
2023-04-17T20:41:01.158Z,9.43
2023-04-17T20:43:31.689Z,9.40
2023-04-17T20:45:59.925Z,9.35
2023-04-17T20:48:28.505Z,9.33
2023-04-17T20:50:59.216Z,9.30
2023-04-17T20:53:27.357Z,9.28
2023-04-17T20:55:57.817Z,9.28
2023-04-17T20:58:26.093Z,9.27
2023-04-17T21:01:01.375Z,9.26
2023-04-17T21:03:31.445Z,9.24
2023-04-17T21:06:00.417Z,9.25
2023-04-17T21:08:29.418Z,9.26
2023-04-17T21:10:57.681Z,9.27
2023-04-17T21:13:26.682Z,9.28
2023-04-17T21:15:55.363Z,9.29
2023-04-17T21:18:23.662Z,9.29
2023-04-17T21:20:52.002Z,9.27
2023-04-17T21:23:21.616Z,9.25
2023-04-17T21:25:52.000Z,9.25
2023-04-17T21:28:20.422Z,9.26
2023-04-17T21:30:48.706Z,9.24
2023-04-17T21:33:17.280Z,9.23
2023-04-17T21:35:46.279Z,9.21
2023-04-17T21:38:14.476Z,9.19
2023-04-17T21:40:51.117Z,9.16
2023-04-17T21:43:21.021Z,9.13
2023-04-17T21:45:52.666Z,9.12
2023-04-17T21:48:21.785Z,9.11
2023-04-17T21:50:50.189Z,9.10
2023-04-17T21:53:18.744Z,9.09
2023-04-17T21:55:46.884Z,9.08
2023-04-17T21:58:15.507Z,9.09
2023-04-17T22:00:43.916Z,9.09
2023-04-17T22:03:12.586Z,9.10
2023-04-17T22:05:42.283Z,9.09
2023-04-17T22:08:11.120Z,9.08
2023-04-17T22:10:39.373Z,9.07
2023-04-17T22:13:07.708Z,9.08
2023-04-17T22:15:35.945Z,9.09
2023-04-17T22:18:04.593Z,9.11
2023-04-17T22:20:33.104Z,9.12
2023-04-17T22:23:01.455Z,9.12
2023-04-17T22:25:29.630Z,9.11
2023-04-17T22:27:57.877Z,9.09
2023-04-17T22:30:26.469Z,9.08
2023-04-17T22:32:54.726Z,9.06
2023-04-17T22:35:23.517Z,9.04
2023-04-17T22:37:54.770Z,9.02
2023-04-17T22:40:23.069Z,8.99
2023-04-17T22:42:51.546Z,8.97
2023-04-17T22:45:20.099Z,8.96
2023-04-17T22:47:48.530Z,8.94
2023-04-17T22:50:17.882Z,8.93
2023-04-17T22:52:46.314Z,8.91
2023-04-17T22:55:14.741Z,8.88
2023-04-17T22:57:43.326Z,8.86
2023-04-17T23:00:12.433Z,8.85
2023-04-17T23:02:40.619Z,8.86
2023-04-17T23:05:09.488Z,8.87
2023-04-17T23:07:39.804Z,8.90
2023-04-17T23:10:08.689Z,8.90
2023-04-17T23:12:36.905Z,8.89
2023-04-17T23:15:08.526Z,8.90
2023-04-17T23:17:36.879Z,8.89
2023-04-17T23:20:06.073Z,8.89
2023-04-17T23:22:34.654Z,8.85
2023-04-17T23:25:03.309Z,8.83
2023-04-17T23:27:32.273Z,8.81
2023-04-17T23:30:01.052Z,8.79
2023-04-17T23:32:29.760Z,8.77
2023-04-17T23:34:58.016Z,8.75
2023-04-17T23:37:26.307Z,8.70
2023-04-17T23:47:37.722Z,8.74
2023-04-17T23:50:07.584Z,8.76
2023-04-17T23:52:36.356Z,8.77
2023-04-17T23:55:06.023Z,8.78
2023-04-17T23:57:35.688Z,8.76
